sensor_id;sensor_type;location;lat;lon;timestamp;P1;durP1;ratioP1;P2;durP2;ratioP2
36291;SDS011;22327;51.208;6.418;2023-11-21T00:00:29;44.42;;;19.65;;
36291;SDS011;22327;51.208;6.418;2023-11-21T00:03:30;43.13;;;19.05;;
36291;SDS011;22327;51.208;6.418;2023-11-21T00:06:31;40.47;;;18.55;;
36291;SDS011;22327;51.208;6.418;2023-11-21T00:09:34;44.00;;;19.95;;
36291;SDS011;22327;51.208;6.418;2023-11-21T00:12:36;44.80;;;20.45;;
36291;SDS011;22327;51.208;6.418;2023-11-21T00:15:37;47.38;;;21.05;;
36291;SDS011;22327;51.208;6.418;2023-11-21T00:18:38;49.10;;;20.60;;
36291;SDS011;22327;51.208;6.418;2023-11-21T00:21:38;50.08;;;22.00;;
36291;SDS011;22327;51.208;6.418;2023-11-21T00:24:39;54.60;;;21.88;;
36291;SDS011;22327;51.208;6.418;2023-11-21T00:27:39;59.67;;;24.33;;
36291;SDS011;22327;51.208;6.418;2023-11-21T00:30:41;64.88;;;24.63;;
36291;SDS011;22327;51.208;6.418;2023-11-21T00:33:42;63.70;;;23.35;;
36291;SDS011;22327;51.208;6.418;2023-11-21T00:36:43;76.07;;;23.80;;
36291;SDS011;22327;51.208;6.418;2023-11-21T00:39:43;63.03;;;22.80;;
36291;SDS011;22327;51.208;6.418;2023-11-21T00:42:44;70.70;;;23.40;;
36291;SDS011;22327;51.208;6.418;2023-11-21T00:45:44;76.03;;;23.23;;
36291;SDS011;22327;51.208;6.418;2023-11-21T00:48:45;75.75;;;24.73;;
36291;SDS011;22327;51.208;6.418;2023-11-21T00:51:45;69.78;;;22.75;;
36291;SDS011;22327;51.208;6.418;2023-11-21T00:54:46;72.35;;;23.13;;
36291;SDS011;22327;51.208;6.418;2023-11-21T00:57:48;80.60;;;23.88;;
36291;SDS011;22327;51.208;6.418;2023-11-21T01:00:48;67.47;;;23.15;;
36291;SDS011;22327;51.208;6.418;2023-11-21T01:03:49;85.07;;;24.60;;
36291;SDS011;22327;51.208;6.418;2023-11-21T01:06:50;65.25;;;21.98;;
36291;SDS011;22327;51.208;6.418;2023-11-21T01:09:50;75.35;;;24.10;;
36291;SDS011;22327;51.208;6.418;2023-11-21T01:12:51;71.35;;;24.15;;
36291;SDS011;22327;51.208;6.418;2023-11-21T01:15:51;80.13;;;24.50;;
36291;SDS011;22327;51.208;6.418;2023-11-21T01:18:51;79.45;;;25.15;;
36291;SDS011;22327;51.208;6.418;2023-11-21T01:21:53;73.32;;;23.20;;
36291;SDS011;22327;51.208;6.418;2023-11-21T01:24:53;74.20;;;24.90;;
36291;SDS011;22327;51.208;6.418;2023-11-21T01:27:54;93.78;;;26.48;;
36291;SDS011;22327;51.208;6.418;2023-11-21T01:30:54;83.18;;;24.60;;
36291;SDS011;22327;51.208;6.418;2023-11-21T01:33:56;85.10;;;25.23;;
36291;SDS011;22327;51.208;6.418;2023-11-21T01:36:56;72.40;;;24.77;;
36291;SDS011;22327;51.208;6.418;2023-11-21T01:39:57;67.10;;;23.33;;
36291;SDS011;22327;51.208;6.418;2023-11-21T01:42:58;81.22;;;24.58;;
36291;SDS011;22327;51.208;6.418;2023-11-21T01:45:59;86.00;;;25.70;;
36291;SDS011;22327;51.208;6.418;2023-11-21T01:49:00;80.32;;;26.45;;
36291;SDS011;22327;51.208;6.418;2023-11-21T01:52:00;89.38;;;26.70;;
36291;SDS011;22327;51.208;6.418;2023-11-21T01:55:02;78.55;;;25.70;;
36291;SDS011;22327;51.208;6.418;2023-11-21T01:58:04;76.93;;;24.30;;
36291;SDS011;22327;51.208;6.418;2023-11-21T02:01:05;77.38;;;25.83;;
36291;SDS011;22327;51.208;6.418;2023-11-21T02:04:06;76.50;;;25.15;;
36291;SDS011;22327;51.208;6.418;2023-11-21T02:07:08;76.75;;;24.00;;
36291;SDS011;22327;51.208;6.418;2023-11-21T02:10:09;60.17;;;21.35;;
36291;SDS011;22327;51.208;6.418;2023-11-21T02:13:09;77.75;;;23.95;;
36291;SDS011;22327;51.208;6.418;2023-11-21T02:16:11;65.57;;;22.42;;
36291;SDS011;22327;51.208;6.418;2023-11-21T02:19:12;70.40;;;22.83;;
36291;SDS011;22327;51.208;6.418;2023-11-21T02:22:19;61.30;;;22.15;;
36291;SDS011;22327;51.208;6.418;2023-11-21T02:25:20;73.95;;;22.55;;
36291;SDS011;22327;51.208;6.418;2023-11-21T02:28:20;70.05;;;23.50;;
36291;SDS011;22327;51.208;6.418;2023-11-21T02:31:25;65.32;;;21.52;;
36291;SDS011;22327;51.208;6.418;2023-11-21T02:34:26;64.30;;;20.80;;
36291;SDS011;22327;51.208;6.418;2023-11-21T02:37:27;64.20;;;21.20;;
36291;SDS011;22327;51.208;6.418;2023-11-21T02:40:28;58.40;;;21.52;;
36291;SDS011;22327;51.208;6.418;2023-11-21T02:43:29;63.80;;;20.27;;
36291;SDS011;22327;51.208;6.418;2023-11-21T02:46:29;58.65;;;21.42;;
36291;SDS011;22327;51.208;6.418;2023-11-21T02:49:33;68.35;;;21.65;;
36291;SDS011;22327;51.208;6.418;2023-11-21T02:52:35;67.90;;;21.63;;
36291;SDS011;22327;51.208;6.418;2023-11-21T02:55:36;55.97;;;20.17;;
36291;SDS011;22327;51.208;6.418;2023-11-21T02:58:37;64.47;;;21.00;;
36291;SDS011;22327;51.208;6.418;2023-11-21T03:01:37;65.07;;;20.58;;
36291;SDS011;22327;51.208;6.418;2023-11-21T03:04:38;66.40;;;21.42;;
36291;SDS011;22327;51.208;6.418;2023-11-21T03:07:39;65.57;;;20.65;;
36291;SDS011;22327;51.208;6.418;2023-11-21T03:10:39;66.45;;;20.88;;
36291;SDS011;22327;51.208;6.418;2023-11-21T03:13:40;61.65;;;19.35;;
36291;SDS011;22327;51.208;6.418;2023-11-21T03:16:41;56.70;;;19.25;;
36291;SDS011;22327;51.208;6.418;2023-11-21T03:19:42;65.47;;;20.45;;
36291;SDS011;22327;51.208;6.418;2023-11-21T03:22:42;73.90;;;20.90;;
36291;SDS011;22327;51.208;6.418;2023-11-21T03:25:43;64.28;;;20.52;;
36291;SDS011;22327;51.208;6.418;2023-11-21T03:28:43;66.07;;;20.08;;
36291;SDS011;22327;51.208;6.418;2023-11-21T03:31:44;64.80;;;20.00;;
36291;SDS011;22327;51.208;6.418;2023-11-21T03:34:54;70.32;;;21.58;;
36291;SDS011;22327;51.208;6.418;2023-11-21T03:37:56;62.33;;;19.73;;
36291;SDS011;22327;51.208;6.418;2023-11-21T03:40:57;62.92;;;20.23;;
36291;SDS011;22327;51.208;6.418;2023-11-21T03:43:57;69.00;;;20.90;;
36291;SDS011;22327;51.208;6.418;2023-11-21T03:46:58;64.03;;;19.90;;
36291;SDS011;22327;51.208;6.418;2023-11-21T03:49:58;64.05;;;19.67;;
36291;SDS011;22327;51.208;6.418;2023-11-21T03:52:59;73.35;;;21.45;;
36291;SDS011;22327;51.208;6.418;2023-11-21T03:56:01;69.57;;;20.30;;
36291;SDS011;22327;51.208;6.418;2023-11-21T03:59:02;63.63;;;19.23;;
36291;SDS011;22327;51.208;6.418;2023-11-21T04:02:03;65.00;;;19.60;;
36291;SDS011;22327;51.208;6.418;2023-11-21T04:05:04;73.50;;;20.23;;
36291;SDS011;22327;51.208;6.418;2023-11-21T04:08:05;64.53;;;19.75;;
36291;SDS011;22327;51.208;6.418;2023-11-21T04:11:05;72.75;;;19.42;;
36291;SDS011;22327;51.208;6.418;2023-11-21T04:14:06;65.18;;;18.45;;
36291;SDS011;22327;51.208;6.418;2023-11-21T04:17:06;74.50;;;20.23;;
36291;SDS011;22327;51.208;6.418;2023-11-21T04:20:07;68.55;;;20.70;;
36291;SDS011;22327;51.208;6.418;2023-11-21T04:23:09;64.57;;;18.33;;
36291;SDS011;22327;51.208;6.418;2023-11-21T04:26:10;64.65;;;18.48;;
36291;SDS011;22327;51.208;6.418;2023-11-21T04:29:11;57.50;;;18.38;;
36291;SDS011;22327;51.208;6.418;2023-11-21T04:32:11;58.50;;;18.70;;
36291;SDS011;22327;51.208;6.418;2023-11-21T04:35:12;62.95;;;19.88;;
36291;SDS011;22327;51.208;6.418;2023-11-21T04:38:13;61.25;;;18.27;;
36291;SDS011;22327;51.208;6.418;2023-11-21T04:41:13;70.38;;;20.45;;
36291;SDS011;22327;51.208;6.418;2023-11-21T04:44:14;87.68;;;22.17;;
36291;SDS011;22327;51.208;6.418;2023-11-21T04:47:16;81.55;;;23.35;;
36291;SDS011;22327;51.208;6.418;2023-11-21T04:50:19;76.07;;;22.52;;
36291;SDS011;22327;51.208;6.418;2023-11-21T04:53:20;83.65;;;23.35;;
36291;SDS011;22327;51.208;6.418;2023-11-21T04:56:21;99.95;;;24.52;;
36291;SDS011;22327;51.208;6.418;2023-11-21T04:59:21;72.63;;;22.08;;
36291;SDS011;22327;51.208;6.418;2023-11-21T05:02:24;85.03;;;23.17;;
36291;SDS011;22327;51.208;6.418;2023-11-21T05:05:25;73.50;;;21.80;;
36291;SDS011;22327;51.208;6.418;2023-11-21T05:08:25;74.45;;;22.23;;
36291;SDS011;22327;51.208;6.418;2023-11-21T05:11:26;94.70;;;25.63;;
36291;SDS011;22327;51.208;6.418;2023-11-21T05:14:27;87.72;;;24.92;;
36291;SDS011;22327;51.208;6.418;2023-11-21T05:17:28;84.57;;;23.80;;
36291;SDS011;22327;51.208;6.418;2023-11-21T05:20:29;95.28;;;25.15;;
36291;SDS011;22327;51.208;6.418;2023-11-21T05:23:29;113.63;;;26.63;;
36291;SDS011;22327;51.208;6.418;2023-11-21T05:26:30;95.88;;;25.48;;
36291;SDS011;22327;51.208;6.418;2023-11-21T05:29:30;93.53;;;26.02;;
36291;SDS011;22327;51.208;6.418;2023-11-21T05:32:31;87.18;;;25.83;;
36291;SDS011;22327;51.208;6.418;2023-11-21T05:35:32;89.80;;;25.30;;
36291;SDS011;22327;51.208;6.418;2023-11-21T05:38:33;96.18;;;27.13;;
36291;SDS011;22327;51.208;6.418;2023-11-21T05:41:35;90.75;;;28.08;;
36291;SDS011;22327;51.208;6.418;2023-11-21T05:44:35;99.90;;;25.85;;
36291;SDS011;22327;51.208;6.418;2023-11-21T05:47:41;106.25;;;27.60;;
36291;SDS011;22327;51.208;6.418;2023-11-21T05:50:42;97.63;;;27.90;;
36291;SDS011;22327;51.208;6.418;2023-11-21T05:53:43;90.00;;;27.75;;
36291;SDS011;22327;51.208;6.418;2023-11-21T05:56:43;103.05;;;27.55;;
36291;SDS011;22327;51.208;6.418;2023-11-21T05:59:44;112.53;;;30.52;;
36291;SDS011;22327;51.208;6.418;2023-11-21T06:02:46;98.43;;;28.98;;
36291;SDS011;22327;51.208;6.418;2023-11-21T06:05:50;100.07;;;29.77;;
36291;SDS011;22327;51.208;6.418;2023-11-21T06:08:50;110.80;;;31.13;;
36291;SDS011;22327;51.208;6.418;2023-11-21T06:11:51;101.47;;;29.77;;
36291;SDS011;22327;51.208;6.418;2023-11-21T06:14:52;106.90;;;31.67;;
36291;SDS011;22327;51.208;6.418;2023-11-21T06:17:53;125.38;;;33.53;;
36291;SDS011;22327;51.208;6.418;2023-11-21T06:20:53;106.53;;;30.52;;
36291;SDS011;22327;51.208;6.418;2023-11-21T06:23:54;117.53;;;32.05;;
36291;SDS011;22327;51.208;6.418;2023-11-21T06:26:57;122.65;;;32.50;;
36291;SDS011;22327;51.208;6.418;2023-11-21T06:29:57;110.90;;;30.30;;
36291;SDS011;22327;51.208;6.418;2023-11-21T06:32:58;114.53;;;31.90;;
36291;SDS011;22327;51.208;6.418;2023-11-21T06:35:59;109.10;;;30.38;;
36291;SDS011;22327;51.208;6.418;2023-11-21T06:39:03;110.70;;;29.83;;
36291;SDS011;22327;51.208;6.418;2023-11-21T06:42:08;108.20;;;29.10;;
36291;SDS011;22327;51.208;6.418;2023-11-21T06:45:09;102.35;;;28.45;;
36291;SDS011;22327;51.208;6.418;2023-11-21T06:48:10;141.48;;;33.92;;
36291;SDS011;22327;51.208;6.418;2023-11-21T06:51:11;129.48;;;32.53;;
36291;SDS011;22327;51.208;6.418;2023-11-21T06:54:13;148.05;;;33.03;;
36291;SDS011;22327;51.208;6.418;2023-11-21T06:57:14;124.82;;;32.20;;
36291;SDS011;22327;51.208;6.418;2023-11-21T07:00:15;163.18;;;34.72;;
36291;SDS011;22327;51.208;6.418;2023-11-21T07:03:17;133.05;;;32.80;;
36291;SDS011;22327;51.208;6.418;2023-11-21T07:06:19;150.10;;;32.50;;
36291;SDS011;22327;51.208;6.418;2023-11-21T07:09:19;135.57;;;32.85;;
36291;SDS011;22327;51.208;6.418;2023-11-21T07:12:22;112.72;;;30.20;;
36291;SDS011;22327;51.208;6.418;2023-11-21T07:15:23;120.95;;;30.77;;
36291;SDS011;22327;51.208;6.418;2023-11-21T07:18:25;123.25;;;31.55;;
36291;SDS011;22327;51.208;6.418;2023-11-21T07:21:26;115.82;;;30.33;;
36291;SDS011;22327;51.208;6.418;2023-11-21T07:24:26;132.98;;;31.90;;
36291;SDS011;22327;51.208;6.418;2023-11-21T07:27:27;116.70;;;30.73;;
36291;SDS011;22327;51.208;6.418;2023-11-21T07:30:28;139.82;;;32.50;;
36291;SDS011;22327;51.208;6.418;2023-11-21T07:33:29;122.53;;;29.35;;
36291;SDS011;22327;51.208;6.418;2023-11-21T07:36:29;125.93;;;30.35;;
36291;SDS011;22327;51.208;6.418;2023-11-21T07:39:30;121.80;;;31.48;;
36291;SDS011;22327;51.208;6.418;2023-11-21T07:42:30;134.82;;;32.17;;
36291;SDS011;22327;51.208;6.418;2023-11-21T07:45:31;118.20;;;32.53;;
36291;SDS011;22327;51.208;6.418;2023-11-21T07:48:32;114.53;;;30.05;;
36291;SDS011;22327;51.208;6.418;2023-11-21T07:51:32;109.07;;;31.15;;
36291;SDS011;22327;51.208;6.418;2023-11-21T07:54:33;109.47;;;30.73;;
36291;SDS011;22327;51.208;6.418;2023-11-21T07:57:35;106.15;;;29.85;;
36291;SDS011;22327;51.208;6.418;2023-11-21T08:00:36;103.95;;;28.90;;
36291;SDS011;22327;51.208;6.418;2023-11-21T08:03:37;103.05;;;28.98;;
36291;SDS011;22327;51.208;6.418;2023-11-21T08:06:38;97.00;;;28.45;;
36291;SDS011;22327;51.208;6.418;2023-11-21T08:09:38;95.57;;;30.23;;
36291;SDS011;22327;51.208;6.418;2023-11-21T08:12:39;83.82;;;27.98;;
36291;SDS011;22327;51.208;6.418;2023-11-21T08:15:39;77.75;;;27.92;;
36291;SDS011;22327;51.208;6.418;2023-11-21T08:18:41;78.50;;;27.17;;
36291;SDS011;22327;51.208;6.418;2023-11-21T08:21:43;71.97;;;24.85;;
36291;SDS011;22327;51.208;6.418;2023-11-21T08:24:43;77.07;;;25.92;;
36291;SDS011;22327;51.208;6.418;2023-11-21T08:27:44;77.22;;;26.58;;
36291;SDS011;22327;51.208;6.418;2023-11-21T08:30:45;77.22;;;26.65;;
36291;SDS011;22327;51.208;6.418;2023-11-21T08:33:45;70.35;;;25.45;;
36291;SDS011;22327;51.208;6.418;2023-11-21T08:36:46;62.05;;;24.30;;
36291;SDS011;22327;51.208;6.418;2023-11-21T08:39:47;70.78;;;24.85;;
36291;SDS011;22327;51.208;6.418;2023-11-21T08:42:48;60.85;;;23.00;;
36291;SDS011;22327;51.208;6.418;2023-11-21T08:45:49;54.80;;;22.80;;
36291;SDS011;22327;51.208;6.418;2023-11-21T08:48:49;50.35;;;20.83;;
36291;SDS011;22327;51.208;6.418;2023-11-21T08:51:52;53.60;;;19.60;;
36291;SDS011;22327;51.208;6.418;2023-11-21T08:54:55;54.17;;;20.67;;
36291;SDS011;22327;51.208;6.418;2023-11-21T08:58:02;48.50;;;16.63;;
36291;SDS011;22327;51.208;6.418;2023-11-21T09:01:05;42.35;;;16.42;;
36291;SDS011;22327;51.208;6.418;2023-11-21T09:04:07;39.65;;;15.52;;
36291;SDS011;22327;51.208;6.418;2023-11-21T09:07:08;44.20;;;15.70;;
36291;SDS011;22327;51.208;6.418;2023-11-21T09:10:10;35.70;;;15.27;;
36291;SDS011;22327;51.208;6.418;2023-11-21T09:13:11;39.58;;;16.30;;
36291;SDS011;22327;51.208;6.418;2023-11-21T09:16:13;34.72;;;15.20;;
36291;SDS011;22327;51.208;6.418;2023-11-21T09:19:15;40.25;;;15.05;;
36291;SDS011;22327;51.208;6.418;2023-11-21T09:22:16;36.15;;;15.20;;
36291;SDS011;22327;51.208;6.418;2023-11-21T09:25:17;36.50;;;14.27;;
36291;SDS011;22327;51.208;6.418;2023-11-21T09:28:18;34.03;;;14.00;;
36291;SDS011;22327;51.208;6.418;2023-11-21T09:31:19;33.25;;;13.18;;
36291;SDS011;22327;51.208;6.418;2023-11-21T09:34:22;29.65;;;12.30;;
36291;SDS011;22327;51.208;6.418;2023-11-21T09:37:23;35.42;;;12.98;;
36291;SDS011;22327;51.208;6.418;2023-11-21T09:40:24;28.48;;;11.80;;
36291;SDS011;22327;51.208;6.418;2023-11-21T09:43:25;27.58;;;12.45;;
36291;SDS011;22327;51.208;6.418;2023-11-21T09:46:28;30.03;;;12.03;;
36291;SDS011;22327;51.208;6.418;2023-11-21T09:49:30;31.50;;;13.02;;
36291;SDS011;22327;51.208;6.418;2023-11-21T09:52:37;26.73;;;11.30;;
36291;SDS011;22327;51.208;6.418;2023-11-21T09:55:52;24.88;;;11.43;;
36291;SDS011;22327;51.208;6.418;2023-11-21T09:58:54;31.60;;;12.00;;
36291;SDS011;22327;51.208;6.418;2023-11-21T10:01:56;27.65;;;11.73;;
36291;SDS011;22327;51.208;6.418;2023-11-21T10:04:59;26.63;;;11.35;;
36291;SDS011;22327;51.208;6.418;2023-11-21T10:08:00;26.05;;;11.52;;
36291;SDS011;22327;51.208;6.418;2023-11-21T10:11:00;26.88;;;11.80;;
36291;SDS011;22327;51.208;6.418;2023-11-21T10:14:02;24.77;;;11.63;;
36291;SDS011;22327;51.208;6.418;2023-11-21T10:17:04;22.08;;;10.05;;
36291;SDS011;22327;51.208;6.418;2023-11-21T10:20:09;23.88;;;11.43;;
36291;SDS011;22327;51.208;6.418;2023-11-21T10:23:11;24.20;;;10.75;;
36291;SDS011;22327;51.208;6.418;2023-11-21T10:26:13;18.95;;;9.73;;
36291;SDS011;22327;51.208;6.418;2023-11-21T10:29:16;22.20;;;11.02;;
36291;SDS011;22327;51.208;6.418;2023-11-21T10:32:18;18.55;;;9.75;;
36291;SDS011;22327;51.208;6.418;2023-11-21T10:35:18;19.73;;;9.70;;
36291;SDS011;22327;51.208;6.418;2023-11-21T10:38:19;17.92;;;9.45;;
36291;SDS011;22327;51.208;6.418;2023-11-21T10:41:24;16.45;;;9.00;;
36291;SDS011;22327;51.208;6.418;2023-11-21T10:44:25;20.35;;;9.85;;
36291;SDS011;22327;51.208;6.418;2023-11-21T10:47:26;20.55;;;10.18;;
36291;SDS011;22327;51.208;6.418;2023-11-21T10:50:26;18.25;;;9.48;;
36291;SDS011;22327;51.208;6.418;2023-11-21T10:53:28;21.80;;;10.40;;
36291;SDS011;22327;51.208;6.418;2023-11-21T10:56:29;18.15;;;9.50;;
36291;SDS011;22327;51.208;6.418;2023-11-21T10:59:30;20.02;;;9.93;;
36291;SDS011;22327;51.208;6.418;2023-11-21T11:02:31;17.42;;;9.55;;
36291;SDS011;22327;51.208;6.418;2023-11-21T11:05:35;20.38;;;9.32;;
36291;SDS011;22327;51.208;6.418;2023-11-21T11:08:36;17.00;;;9.15;;
36291;SDS011;22327;51.208;6.418;2023-11-21T11:11:38;19.50;;;9.48;;
36291;SDS011;22327;51.208;6.418;2023-11-21T11:14:44;18.85;;;10.32;;
36291;SDS011;22327;51.208;6.418;2023-11-21T11:17:45;16.70;;;9.65;;
36291;SDS011;22327;51.208;6.418;2023-11-21T11:20:46;17.40;;;8.98;;
36291;SDS011;22327;51.208;6.418;2023-11-21T11:23:58;18.13;;;9.80;;
36291;SDS011;22327;51.208;6.418;2023-11-21T11:37:03;16.52;;;9.07;;
36291;SDS011;22327;51.208;6.418;2023-11-21T11:40:08;17.20;;;8.73;;
36291;SDS011;22327;51.208;6.418;2023-11-21T11:43:11;20.92;;;9.23;;
36291;SDS011;22327;51.208;6.418;2023-11-21T11:46:12;16.35;;;8.40;;
36291;SDS011;22327;51.208;6.418;2023-11-21T11:49:23;17.00;;;8.27;;
36291;SDS011;22327;51.208;6.418;2023-11-21T11:55:36;14.40;;;8.43;;
36291;SDS011;22327;51.208;6.418;2023-11-21T11:58:37;16.17;;;8.95;;
36291;SDS011;22327;51.208;6.418;2023-11-21T12:01:38;15.85;;;7.53;;
36291;SDS011;22327;51.208;6.418;2023-11-21T12:04:45;16.73;;;7.97;;
36291;SDS011;22327;51.208;6.418;2023-11-21T12:07:49;15.85;;;8.23;;
36291;SDS011;22327;51.208;6.418;2023-11-21T12:10:53;17.67;;;8.20;;
36291;SDS011;22327;51.208;6.418;2023-11-21T12:13:54;14.98;;;8.90;;
36291;SDS011;22327;51.208;6.418;2023-11-21T12:16:54;14.82;;;8.75;;
36291;SDS011;22327;51.208;6.418;2023-11-21T12:20:01;15.90;;;9.27;;
36291;SDS011;22327;51.208;6.418;2023-11-21T12:23:06;16.48;;;8.45;;
36291;SDS011;22327;51.208;6.418;2023-11-21T12:26:08;18.15;;;8.32;;
36291;SDS011;22327;51.208;6.418;2023-11-21T12:29:10;15.95;;;8.02;;
36291;SDS011;22327;51.208;6.418;2023-11-21T12:32:11;14.45;;;7.82;;
36291;SDS011;22327;51.208;6.418;2023-11-21T12:35:12;17.92;;;8.30;;
36291;SDS011;22327;51.208;6.418;2023-11-21T12:38:12;19.25;;;8.85;;
36291;SDS011;22327;51.208;6.418;2023-11-21T12:41:13;17.50;;;8.25;;
36291;SDS011;22327;51.208;6.418;2023-11-21T12:44:17;16.20;;;8.23;;
36291;SDS011;22327;51.208;6.418;2023-11-21T12:47:19;15.20;;;7.90;;
36291;SDS011;22327;51.208;6.418;2023-11-21T12:50:24;17.02;;;9.70;;
36291;SDS011;22327;51.208;6.418;2023-11-21T12:53:28;18.27;;;10.10;;
36291;SDS011;22327;51.208;6.418;2023-11-21T12:56:39;20.58;;;10.70;;
36291;SDS011;22327;51.208;6.418;2023-11-21T12:59:40;21.85;;;10.23;;
36291;SDS011;22327;51.208;6.418;2023-11-21T13:02:43;16.45;;;9.13;;
36291;SDS011;22327;51.208;6.418;2023-11-21T13:05:45;18.95;;;9.88;;
36291;SDS011;22327;51.208;6.418;2023-11-21T13:08:48;20.38;;;9.80;;
36291;SDS011;22327;51.208;6.418;2023-11-21T13:11:49;15.48;;;9.05;;
36291;SDS011;22327;51.208;6.418;2023-11-21T13:14:49;16.20;;;8.27;;
36291;SDS011;22327;51.208;6.418;2023-11-21T13:17:50;17.00;;;8.93;;
36291;SDS011;22327;51.208;6.418;2023-11-21T13:20:53;16.97;;;8.80;;
36291;SDS011;22327;51.208;6.418;2023-11-21T13:23:55;16.80;;;8.43;;
36291;SDS011;22327;51.208;6.418;2023-11-21T13:26:56;15.00;;;9.15;;
36291;SDS011;22327;51.208;6.418;2023-11-21T13:29:57;19.38;;;9.55;;
36291;SDS011;22327;51.208;6.418;2023-11-21T13:32:58;15.43;;;8.75;;
36291;SDS011;22327;51.208;6.418;2023-11-21T13:36:02;17.40;;;8.63;;
36291;SDS011;22327;51.208;6.418;2023-11-21T13:39:07;17.08;;;9.73;;
36291;SDS011;22327;51.208;6.418;2023-11-21T13:42:15;16.63;;;9.63;;
36291;SDS011;22327;51.208;6.418;2023-11-21T13:45:16;14.80;;;8.73;;
36291;SDS011;22327;51.208;6.418;2023-11-21T13:48:18;16.17;;;8.90;;
36291;SDS011;22327;51.208;6.418;2023-11-21T13:51:25;13.30;;;8.18;;
36291;SDS011;22327;51.208;6.418;2023-11-21T13:54:39;14.65;;;7.88;;
36291;SDS011;22327;51.208;6.418;2023-11-21T13:57:39;19.23;;;9.23;;
36291;SDS011;22327;51.208;6.418;2023-11-21T14:00:40;16.13;;;9.02;;
36291;SDS011;22327;51.208;6.418;2023-11-21T14:03:48;21.33;;;9.70;;
36291;SDS011;22327;51.208;6.418;2023-11-21T14:06:54;16.70;;;9.13;;
36291;SDS011;22327;51.208;6.418;2023-11-21T14:09:54;18.52;;;9.40;;
36291;SDS011;22327;51.208;6.418;2023-11-21T14:12:56;19.10;;;10.18;;
36291;SDS011;22327;51.208;6.418;2023-11-21T14:15:56;22.35;;;11.98;;
36291;SDS011;22327;51.208;6.418;2023-11-21T14:19:00;19.02;;;10.27;;
36291;SDS011;22327;51.208;6.418;2023-11-21T14:22:10;19.45;;;10.52;;
36291;SDS011;22327;51.208;6.418;2023-11-21T14:25:10;17.30;;;10.85;;
36291;SDS011;22327;51.208;6.418;2023-11-21T14:28:12;18.15;;;10.55;;
36291;SDS011;22327;51.208;6.418;2023-11-21T14:31:12;17.52;;;10.60;;
36291;SDS011;22327;51.208;6.418;2023-11-21T14:34:17;20.15;;;10.43;;
36291;SDS011;22327;51.208;6.418;2023-11-21T14:37:18;20.58;;;11.10;;
36291;SDS011;22327;51.208;6.418;2023-11-21T14:40:20;24.75;;;11.90;;
36291;SDS011;22327;51.208;6.418;2023-11-21T14:43:24;20.98;;;10.70;;
36291;SDS011;22327;51.208;6.418;2023-11-21T14:46:25;20.33;;;11.65;;
36291;SDS011;22327;51.208;6.418;2023-11-21T14:49:26;20.33;;;10.55;;
36291;SDS011;22327;51.208;6.418;2023-11-21T14:52:31;22.05;;;10.68;;
36291;SDS011;22327;51.208;6.418;2023-11-21T14:58:57;19.88;;;11.80;;
36291;SDS011;22327;51.208;6.418;2023-11-21T15:01:59;23.05;;;13.65;;
36291;SDS011;22327;51.208;6.418;2023-11-21T15:05:14;21.30;;;12.23;;
36291;SDS011;22327;51.208;6.418;2023-11-21T15:08:16;18.75;;;12.02;;
36291;SDS011;22327;51.208;6.418;2023-11-21T15:11:30;21.77;;;12.77;;
36291;SDS011;22327;51.208;6.418;2023-11-21T15:14:30;19.55;;;11.93;;
36291;SDS011;22327;51.208;6.418;2023-11-21T15:17:31;17.90;;;10.40;;
36291;SDS011;22327;51.208;6.418;2023-11-21T15:20:32;21.98;;;12.15;;
36291;SDS011;22327;51.208;6.418;2023-11-21T15:23:33;21.73;;;11.65;;
36291;SDS011;22327;51.208;6.418;2023-11-21T15:26:34;22.55;;;12.23;;
36291;SDS011;22327;51.208;6.418;2023-11-21T15:29:35;21.85;;;11.38;;
36291;SDS011;22327;51.208;6.418;2023-11-21T15:32:36;21.77;;;11.93;;
36291;SDS011;22327;51.208;6.418;2023-11-21T15:35:36;21.92;;;11.05;;
36291;SDS011;22327;51.208;6.418;2023-11-21T15:38:38;19.70;;;10.50;;
36291;SDS011;22327;51.208;6.418;2023-11-21T15:41:39;18.48;;;10.82;;
36291;SDS011;22327;51.208;6.418;2023-11-21T15:44:40;18.13;;;11.10;;
36291;SDS011;22327;51.208;6.418;2023-11-21T15:47:40;20.30;;;10.52;;
36291;SDS011;22327;51.208;6.418;2023-11-21T15:50:41;21.85;;;11.30;;
36291;SDS011;22327;51.208;6.418;2023-11-21T15:53:42;17.50;;;10.55;;
36291;SDS011;22327;51.208;6.418;2023-11-21T15:56:44;19.67;;;10.27;;
36291;SDS011;22327;51.208;6.418;2023-11-21T15:59:44;17.95;;;10.40;;
36291;SDS011;22327;51.208;6.418;2023-11-21T16:02:45;19.92;;;10.98;;
36291;SDS011;22327;51.208;6.418;2023-11-21T16:05:46;17.75;;;9.60;;
36291;SDS011;22327;51.208;6.418;2023-11-21T16:08:47;18.42;;;11.60;;
36291;SDS011;22327;51.208;6.418;2023-11-21T16:11:48;17.70;;;10.23;;
36291;SDS011;22327;51.208;6.418;2023-11-21T16:14:56;15.60;;;9.48;;
36291;SDS011;22327;51.208;6.418;2023-11-21T16:17:56;16.85;;;9.82;;
36291;SDS011;22327;51.208;6.418;2023-11-21T16:20:57;16.55;;;9.80;;
36291;SDS011;22327;51.208;6.418;2023-11-21T16:23:58;16.92;;;9.52;;
36291;SDS011;22327;51.208;6.418;2023-11-21T16:26:59;12.68;;;8.60;;
36291;SDS011;22327;51.208;6.418;2023-11-21T16:30:00;16.17;;;8.65;;
36291;SDS011;22327;51.208;6.418;2023-11-21T16:33:03;14.18;;;8.32;;
36291;SDS011;22327;51.208;6.418;2023-11-21T16:36:04;14.63;;;8.38;;
36291;SDS011;22327;51.208;6.418;2023-11-21T16:39:06;10.50;;;7.00;;
36291;SDS011;22327;51.208;6.418;2023-11-21T16:42:07;14.48;;;8.18;;
36291;SDS011;22327;51.208;6.418;2023-11-21T16:45:08;13.02;;;8.13;;
36291;SDS011;22327;51.208;6.418;2023-11-21T16:48:08;13.75;;;8.00;;
36291;SDS011;22327;51.208;6.418;2023-11-21T16:51:10;11.65;;;7.53;;
36291;SDS011;22327;51.208;6.418;2023-11-21T16:54:12;12.00;;;6.47;;
36291;SDS011;22327;51.208;6.418;2023-11-21T16:57:15;10.48;;;6.38;;
36291;SDS011;22327;51.208;6.418;2023-11-21T17:00:15;8.93;;;5.90;;
36291;SDS011;22327;51.208;6.418;2023-11-21T17:03:18;8.05;;;5.65;;
36291;SDS011;22327;51.208;6.418;2023-11-21T17:06:20;11.15;;;6.68;;
36291;SDS011;22327;51.208;6.418;2023-11-21T17:09:23;8.43;;;5.78;;
36291;SDS011;22327;51.208;6.418;2023-11-21T17:12:23;8.05;;;5.53;;
36291;SDS011;22327;51.208;6.418;2023-11-21T17:15:26;7.85;;;5.43;;
36291;SDS011;22327;51.208;6.418;2023-11-21T17:18:26;10.82;;;6.43;;
36291;SDS011;22327;51.208;6.418;2023-11-21T17:21:27;10.35;;;6.20;;
36291;SDS011;22327;51.208;6.418;2023-11-21T17:24:28;9.50;;;6.25;;
36291;SDS011;22327;51.208;6.418;2023-11-21T17:27:29;9.45;;;6.40;;
36291;SDS011;22327;51.208;6.418;2023-11-21T17:30:30;10.07;;;6.10;;
36291;SDS011;22327;51.208;6.418;2023-11-21T17:33:31;10.38;;;7.00;;
36291;SDS011;22327;51.208;6.418;2023-11-21T17:36:31;11.65;;;7.78;;
36291;SDS011;22327;51.208;6.418;2023-11-21T17:39:32;14.85;;;10.07;;
36291;SDS011;22327;51.208;6.418;2023-11-21T17:42:34;16.88;;;9.77;;
36291;SDS011;22327;51.208;6.418;2023-11-21T17:45:34;14.10;;;9.55;;
36291;SDS011;22327;51.208;6.418;2023-11-21T17:48:35;14.43;;;9.30;;
36291;SDS011;22327;51.208;6.418;2023-11-21T17:51:38;19.85;;;12.65;;
36291;SDS011;22327;51.208;6.418;2023-11-21T17:54:40;17.10;;;11.27;;
36291;SDS011;22327;51.208;6.418;2023-11-21T17:57:41;18.80;;;12.38;;
36291;SDS011;22327;51.208;6.418;2023-11-21T18:00:42;18.67;;;12.55;;